Time;durP1;ratioP1;P1;durP2;ratioP2;P2;SDS_P1;SDS_P2;PMS_P1;PMS_P2;Temp;Humidity;BMP_temperature;BMP_pressure;BME280_temperature;BME280_humidity;BME280_pressure;Samples;Min_cycle;Max_cycle;Signal;HPM_P1;HPM_P2
2021/12/14 00:01:52;;;;;;;;;24.50;22.50;;;;;-147.17;100.00;50164.88;4958976;28;52772;-62
2021/12/14 00:04:26;;;;;;;;;24.25;23.50;;;;;-147.17;100.00;50164.88;4968196;28;51275;-62
2021/12/14 00:06:52;;;;;;;;;19.25;18.00;;;;;-147.17;100.00;50162.91;4966854;28;51355;-61
2021/12/14 00:09:28;;;;;;;;;22.75;20.75;;;;;-147.17;100.00;50164.88;4970721;28;51194;-61
2021/12/14 00:12:23;;;;;;;;;20.50;20.00;;;;;-147.17;100.00;50170.78;4954622;28;50993;-61
2021/12/14 00:17:35;;;;;;;;;20.75;19.00;;;;;-147.17;100.00;50168.81;4971087;28;50983;-62
2021/12/14 00:20:06;;;;;;;;;23.75;20.50;;;;;-147.17;100.00;50135.34;4967661;28;50933;-62
2021/12/14 00:24:05;;;;;;;;;22.75;19.25;;;;;-147.17;100.00;50170.78;4974124;28;52355;-61
2021/12/14 00:25:17;;;;;;;;;20.00;18.50;;;;;-147.17;100.00;50190.47;4972372;28;50996;-62
2021/12/14 00:27:42;;;;;;;;;20.00;18.00;;;;;-147.17;100.00;50119.59;4970582;28;51089;-62
2021/12/14 00:30:08;;;;;;;;;20.00;19.75;;;;;-147.17;100.00;50166.84;4972863;28;51151;-62
2021/12/14 00:32:36;;;;;;;;;15.00;15.00;;;;;-147.17;100.00;50162.91;4968110;28;52101;-62
2021/12/14 00:35:10;;;;;;;;;17.00;15.75;;;;;-147.17;100.00;50186.53;4963761;28;52384;-62
2021/12/14 00:37:39;;;;;;;;;15.75;13.00;;;;;-147.17;100.00;50168.81;4966689;28;51261;-62
2021/12/14 00:40:13;;;;;;;;;18.00;16.75;;;;;-147.17;100.00;50170.78;4971655;28;51039;-62
2021/12/14 00:42:38;;;;;;;;;17.25;15.50;;;;;-147.17;100.00;50151.09;4972424;28;52491;-62
2021/12/14 00:45:05;;;;;;;;;17.00;15.50;;;;;-147.17;100.00;50166.84;4969515;28;51690;-62
2021/12/14 00:47:30;;;;;;;;;17.00;14.00;;;;;-147.17;100.00;50164.88;4971625;28;51035;-62
2021/12/14 00:49:56;;;;;;;;;16.50;14.50;;;;;-147.17;100.00;50151.09;4974168;28;51364;-62
2021/12/14 00:52:22;;;;;;;;;16.50;15.50;;;;;-147.17;100.00;50176.69;4958182;28;51188;-62
2021/12/14 00:54:48;;;;;;;;;20.00;20.00;;;;;-147.17;100.00;50194.41;4978328;28;51130;-62
2021/12/14 00:57:14;;;;;;;;;16.25;13.50;;;;;-147.17;100.00;50178.66;4974493;28;51474;-60
2021/12/14 00:59:40;;;;;;;;;14.00;13.50;;;;;-147.17;100.00;50168.81;4969758;28;51015;-61
2021/12/14 01:02:13;;;;;;;;;14.50;14.00;;;;;-147.17;100.00;50174.72;4974245;28;52994;-61
2021/12/14 01:04:42;;;;;;;;;12.75;10.75;;;;;-147.17;100.00;50168.81;4971880;28;51014;-61
2021/12/14 01:07:11;;;;;;;;;13.25;12.75;;;;;-147.17;100.00;50160.94;4966566;28;51105;-62
2021/12/14 01:09:41;;;;;;;;;13.50;12.50;;;;;-147.17;100.00;50164.88;4973138;28;51260;-61
2021/12/14 01:12:14;;;;;;;;;12.75;10.50;;;;;-147.17;100.00;50190.47;4963150;28;51323;-61
2021/12/14 01:15:12;;;;;;;;;20.50;14.00;;;;;-147.17;100.00;50231.81;4953724;28;51294;-61
2021/12/14 01:17:53;;;;;;;;;9.50;9.00;;;;;-147.17;100.00;50218.03;4963257;28;51277;-61
2021/12/14 01:20:18;;;;;;;;;10.75;9.25;;;;;-147.17;100.00;50218.03;4966976;28;51323;-61
2021/12/14 01:22:47;;;;;;;;;12.50;10.00;;;;;-147.17;100.00;50214.09;4973601;28;51833;-62
2021/12/14 01:25:13;;;;;;;;;12.75;11.25;;;;;-147.17;100.00;50214.09;4965424;28;51212;-62
2021/12/14 01:27:41;;;;;;;;;12.75;10.75;;;;;-147.17;100.00;50188.50;4961690;28;51038;-62
2021/12/14 01:30:14;;;;;;;;;12.75;10.75;;;;;-147.17;100.00;50220.00;4978832;28;51313;-61
2021/12/14 01:32:41;;;;;;;;;11.00;10.00;;;;;-147.17;100.00;50202.28;4963527;28;53993;-61
2021/12/14 01:35:12;;;;;;;;;10.25;9.50;;;;;-147.17;100.00;50218.03;4969761;28;51129;-61
2021/12/14 01:37:44;;;;;;;;;12.75;11.75;;;;;-147.17;100.00;50214.09;4974936;28;51111;-63
2021/12/14 01:40:18;;;;;;;;;14.25;11.25;;;;;-147.17;100.00;50174.72;4968905;28;50868;-62
2021/12/14 01:42:47;;;;;;;;;10.00;9.00;;;;;-147.17;100.00;50192.44;4965637;28;51898;-62
2021/12/14 01:45:24;;;;;;;;;9.50;8.00;;;;;-147.17;100.00;50208.19;4972520;28;51238;-62
2021/12/14 01:47:56;;;;;;;;;11.25;11.25;;;;;-147.17;100.00;50188.50;4964329;28;51042;-62
2021/12/14 01:50:37;;;;;;;;;12.00;10.75;;;;;-147.17;100.00;50208.19;4967478;28;51194;-62
2021/12/14 01:53:03;;;;;;;;;11.50;11.50;;;;;-147.17;100.00;50168.81;4960883;28;52494;-62
2021/12/14 01:55:32;;;;;;;;;12.50;10.50;;;;;-147.17;100.00;50160.94;4965499;28;51051;-62
2021/12/14 01:58:00;;;;;;;;;11.00;10.75;;;;;-147.17;100.00;50170.78;4974449;28;51146;-62
2021/12/14 02:00:38;;;;;;;;;10.50;9.50;;;;;-147.17;100.00;50206.22;4965966;28;51094;-62
2021/12/14 02:03:07;;;;;;;;;13.50;11.50;;;;;-147.17;100.00;50186.53;4976966;28;51978;-62
2021/12/14 02:05:36;;;;;;;;;16.00;14.00;;;;;-147.17;100.00;50162.91;4971601;28;51131;-63
2021/12/14 02:08:13;;;;;;;;;14.00;14.00;;;;;-147.17;100.00;50206.22;4973189;28;51183;-62
2021/12/14 02:10:39;;;;;;;;;16.50;14.50;;;;;-147.17;100.00;50174.72;4973346;28;51279;-61
2021/12/14 02:13:06;;;;;;;;;13.75;12.00;;;;;-147.17;100.00;50188.50;4962234;28;53146;-61
2021/12/14 02:15:37;;;;;;;;;14.75;13.00;;;;;-147.17;100.00;50186.53;4962544;28;51079;-62
2021/12/14 02:18:22;;;;;;;;;15.25;15.00;;;;;-147.17;100.00;50176.69;4985747;28;51112;-61
2021/12/14 02:20:59;;;;;;;;;14.50;13.25;;;;;-147.17;100.00;50194.41;4963738;28;51106;-60
2021/12/14 02:23:26;;;;;;;;;14.25;12.00;;;;;-147.17;100.00;50202.28;4968046;28;51698;-61
2021/12/14 02:25:54;;;;;;;;;10.50;10.50;;;;;-147.17;100.00;50198.34;4959245;28;51185;-61
2021/12/14 02:28:21;;;;;;;;;10.25;10.00;;;;;-147.17;100.00;50198.34;4965981;28;51301;-61
2021/12/14 02:30:51;;;;;;;;;12.50;11.25;;;;;-147.17;100.00;50186.53;4967872;28;51041;-61
2021/12/14 02:33:32;;;;;;;;;12.75;11.00;;;;;-147.17;100.00;50227.88;4975698;28;51356;-61
2021/12/14 02:36:01;;;;;;;;;9.50;9.50;;;;;-147.17;100.00;50206.22;4972612;28;51173;-62
2021/12/14 02:38:27;;;;;;;;;11.50;9.50;;;;;-147.17;100.00;50210.16;4973796;28;50951;-62
2021/12/14 02:41:04;;;;;;;;;10.00;10.00;;;;;-147.17;100.00;50210.16;4969876;28;52502;-62
2021/12/14 02:43:41;;;;;;;;;10.00;9.75;;;;;-147.17;100.00;50206.22;4973152;28;52452;-62
2021/12/14 02:46:17;;;;;;;;;14.00;13.50;;;;;-147.17;100.00;50212.13;4963704;28;51014;-61
2021/12/14 02:48:47;;;;;;;;;15.50;13.25;;;;;-147.17;100.00;50192.44;4955828;28;51389;-61
2021/12/14 02:51:19;;;;;;;;;16.50;14.00;;;;;-147.17;100.00;50190.47;4970558;28;51112;-62
2021/12/14 02:53:48;;;;;;;;;13.50;12.50;;;;;-147.17;100.00;50182.59;4969553;28;50986;-61
2021/12/14 02:56:16;;;;;;;;;17.25;16.50;;;;;-147.17;100.00;50198.34;4961757;28;51098;-62
2021/12/14 02:58:43;;;;;;;;;15.25;13.75;;;;;-147.17;100.00;50178.66;4954324;28;51214;-61
2021/12/14 03:01:12;;;;;;;;;12.75;12.25;;;;;-147.17;100.00;50190.47;4965783;28;51569;-62
2021/12/14 03:03:38;;;;;;;;;14.25;14.00;;;;;-147.17;100.00;50220.00;4968164;28;52940;-62
2021/12/14 03:06:06;;;;;;;;;20.75;19.25;;;;;-147.17;100.00;50212.13;4970959;28;51492;-61
2021/12/14 03:08:37;;;;;;;;;19.25;15.50;;;;;-147.17;100.00;50184.56;4952899;28;51064;-61
2021/12/14 03:11:10;;;;;;;;;15.50;15.00;;;;;-147.17;100.00;50200.31;4969752;28;51487;-61
2021/12/14 03:13:38;;;;;;;;;16.50;16.00;;;;;-147.17;100.00;50194.41;4971797;28;51302;-62
2021/12/14 03:16:10;;;;;;;;;21.75;20.00;;;;;-147.17;100.00;50204.25;4972147;28;51220;-61
2021/12/14 03:18:38;;;;;;;;;22.75;17.75;;;;;-147.17;100.00;50202.28;4971022;28;51142;-61
2021/12/14 03:21:14;;;;;;;;;18.00;16.25;;;;;-147.17;100.00;50190.47;4971261;28;51177;-61
2021/12/14 03:23:44;;;;;;;;;22.25;18.00;;;;;-147.17;100.00;50198.34;4978480;28;51869;-62
2021/12/14 03:26:13;;;;;;;;;19.25;18.00;;;;;-147.17;100.00;50186.53;4967289;28;51010;-61
2021/12/14 03:28:39;;;;;;;;;16.75;15.75;;;;;-147.17;100.00;50190.47;4968035;28;51239;-61
2021/12/14 03:31:30;;;;;;;;;21.00;15.75;;;;;-147.17;100.00;50208.19;4968684;28;51602;-60
2021/12/14 03:34:05;;;;;;;;;20.00;17.75;;;;;-147.17;100.00;50208.19;4955403;28;53807;-61
2021/12/14 03:36:35;;;;;;;;;19.75;19.00;;;;;-147.17;100.00;50188.50;4963608;28;51212;-62
2021/12/14 03:39:09;;;;;;;;;20.25;17.50;;;;;-147.17;100.00;50172.75;4974759;28;51041;-60
2021/12/14 03:41:43;;;;;;;;;19.50;18.25;;;;;-147.17;100.00;50204.25;4973393;28;51382;-61
2021/12/14 03:44:16;;;;;;;;;17.25;16.50;;;;;-147.17;100.00;50206.22;4970489;28;52920;-61
2021/12/14 03:46:48;;;;;;;;;20.25;19.25;;;;;-147.17;100.00;50216.06;4966340;28;51098;-61
2021/12/14 03:49:15;;;;;;;;;19.00;17.25;;;;;-147.17;100.00;50206.22;4972587;28;51098;-61
2021/12/14 03:51:40;;;;;;;;;19.00;17.75;;;;;-147.17;100.00;50198.34;4971884;28;50981;-62
2021/12/14 03:54:06;;;;;;;;;20.00;17.75;;;;;-147.17;100.00;50182.59;4959083;28;51831;-62
2021/12/14 03:56:32;;;;;;;;;22.50;20.75;;;;;-147.17;100.00;50184.56;4971238;28;50949;-62
2021/12/14 03:58:57;;;;;;;;;20.50;17.25;;;;;-147.17;100.00;50182.59;4958464;28;50997;-62
2021/12/14 04:01:28;;;;;;;;;19.00;18.00;;;;;-147.17;100.00;50198.34;4964543;28;51311;-62
2021/12/14 04:03:58;;;;;;;;;16.25;15.00;;;;;-147.17;100.00;50206.22;4955795;28;52244;-61
2021/12/14 04:06:24;;;;;;;;;15.25;14.00;;;;;-147.17;100.00;50190.47;4980377;28;51050;-62
2021/12/14 04:08:50;;;;;;;;;24.00;19.25;;;;;-147.17;100.00;50184.56;4972309;28;51564;-62
2021/12/14 04:11:16;;;;;;;;;19.50;17.75;;;;;-147.17;100.00;50200.31;4965801;28;50999;-62
2021/12/14 04:13:48;;;;;;;;;21.50;19.00;;;;;-147.17;100.00;50166.84;4977239;28;52021;-62
2021/12/14 04:16:17;;;;;;;;;15.50;15.00;;;;;-147.17;100.00;50151.09;4964395;28;51187;-61
2021/12/14 04:18:42;;;;;;;;;18.50;18.00;;;;;-147.17;100.00;50160.94;4969752;28;51128;-61
2021/12/14 04:21:08;;;;;;;;;19.00;16.75;;;;;-147.17;100.00;50153.06;4964849;28;51152;-61
2021/12/14 04:23:38;;;;;;;;;17.00;15.25;;;;;-147.17;100.00;50192.44;4954709;28;51895;-62
2021/12/14 04:26:07;;;;;;;;;17.75;14.25;;;;;-147.17;100.00;50186.53;4960822;28;51130;-61
2021/12/14 04:28:38;;;;;;;;;16.75;15.00;;;;;-147.17;100.00;50176.69;4969322;28;51027;-61
2021/12/14 04:31:03;;;;;;;;;18.75;16.75;;;;;-147.17;100.00;50190.47;4969921;28;50984;-61
2021/12/14 04:33:33;;;;;;;;;16.50;16.50;;;;;-147.17;100.00;50196.38;4967185;28;51933;-62
2021/12/14 04:36:02;;;;;;;;;19.75;17.75;;;;;-147.17;100.00;50210.16;4971291;28;50972;-62
2021/12/14 04:38:30;;;;;;;;;30.50;27.25;;;;;-147.17;100.00;50192.44;4976259;28;50884;-62
2021/12/14 04:52:19;;;;;;;;;15.00;13.75;;;;;-147.17;100.00;50157.00;4975316;28;51219;-62
2021/12/14 04:54:57;;;;;;;;;20.50;17.50;;;;;-147.17;100.00;50151.09;4975398;28;50967;-62
2021/12/14 04:57:30;;;;;;;;;27.25;22.25;;;;;-147.17;100.00;50176.69;4973211;28;51019;-61
2021/12/14 05:00:01;;;;;;;;;21.00;20.75;;;;;-147.17;100.00;50147.16;4971320;28;51099;-61
2021/12/14 05:02:31;;;;;;;;;22.25;20.75;;;;;-147.17;100.00;50170.78;4967931;28;52471;-61
2021/12/14 05:04:58;;;;;;;;;20.25;17.50;;;;;-147.17;100.00;50135.34;4962997;28;53136;-62
2021/12/14 05:09:51;;;;;;;;;18.25;16.25;;;;;-147.17;100.00;50186.53;4962429;28;51020;-61
2021/12/14 05:12:21;;;;;;;;;24.50;21.00;;;;;-147.17;100.00;50151.09;4960101;28;55872;-61
2021/12/14 05:14:47;;;;;;;;;23.00;21.50;;;;;-147.17;100.00;50198.34;4957850;28;51025;-62
2021/12/14 05:17:21;;;;;;;;;16.00;16.00;;;;;-147.17;100.00;50208.19;4974960;28;50956;-62
2021/12/14 05:19:49;;;;;;;;;17.00;16.75;;;;;-147.17;100.00;50170.78;4974176;28;51251;-62
2021/12/14 05:22:22;;;;;;;;;19.00;18.50;;;;;-147.17;100.00;50198.34;4963637;28;51235;-62
2021/12/14 05:24:53;;;;;;;;;21.00;20.25;;;;;-147.17;100.00;50166.84;4967954;28;51132;-62
2021/12/14 05:27:25;;;;;;;;;22.50;21.00;;;;;-147.17;100.00;50162.91;4970106;28;51304;-62
2021/12/14 05:29:51;;;;;;;;;20.50;18.75;;;;;-147.17;100.00;50170.78;4973114;28;51070;-62
2021/12/14 05:32:18;;;;;;;;;21.50;19.50;;;;;-147.17;100.00;50170.78;4971377;28;51356;-62
2021/12/14 05:34:49;;;;;;;;;21.75;20.50;;;;;-147.17;100.00;50202.28;4953269;28;51029;-64
2021/12/14 05:37:21;;;;;;;;;25.75;21.75;;;;;-147.17;100.00;50162.91;4969215;28;51369;-62
2021/12/14 05:39:53;;;;;;;;;23.50;22.25;;;;;-147.17;100.00;50180.63;4957602;28;52184;-62
2021/12/14 05:45:09;;;;;;;;;21.50;21.00;;;;;-147.17;100.00;50162.91;4966186;28;51181;-62
2021/12/14 05:47:41;;;;;;;;;18.25;17.50;;;;;-147.17;100.00;50147.16;4955268;28;51232;-62
2021/12/14 05:50:07;;;;;;;;;23.75;21.50;;;;;-147.17;100.00;50174.72;4955793;28;51186;-62
2021/12/14 05:52:33;;;;;;;;;32.00;31.00;;;;;-147.17;100.00;50176.69;4988656;28;51050;-62
2021/12/14 05:54:58;;;;;;;;;24.75;22.25;;;;;-147.17;100.00;50174.72;4969201;28;52184;-62
2021/12/14 05:57:25;;;;;;;;;28.00;23.50;;;;;-147.17;100.00;50168.81;4974724;28;51151;-62
2021/12/14 05:59:52;;;;;;;;;22.75;20.75;;;;;-147.17;100.00;50127.47;4962194;28;50981;-62
2021/12/14 06:02:19;;;;;;;;;20.00;20.00;;;;;-147.17;100.00;50170.78;4970829;28;51468;-63
2021/12/14 06:04:51;;;;;;;;;23.00;21.50;;;;;-147.17;100.00;50162.91;4973416;28;51131;-62
2021/12/14 06:07:18;;;;;;;;;19.00;17.00;;;;;-147.17;100.00;50184.56;4970431;28;50978;-62
2021/12/14 06:09:48;;;;;;;;;20.75;19.75;;;;;-147.17;100.00;50180.63;4973521;28;51155;-61
2021/12/14 06:12:25;;;;;;;;;21.25;19.75;;;;;-147.17;100.00;50198.34;4974162;28;50888;-62
2021/12/14 06:14:55;;;;;;;;;23.25;19.75;;;;;-147.17;100.00;50174.72;4959782;28;51128;-61
2021/12/14 06:17:26;;;;;;;;;18.75;17.00;;;;;-147.17;100.00;50174.72;4963213;28;50954;-61
2021/12/14 06:19:56;;;;;;;;;22.50;21.50;;;;;-147.17;100.00;50186.53;4956656;28;51229;-61
2021/12/14 06:22:23;;;;;;;;;23.00;21.00;;;;;-147.17;100.00;50176.69;4950533;28;51262;-62
2021/12/14 06:24:53;;;;;;;;;20.25;17.25;;;;;-147.17;100.00;50151.09;4980055;28;51808;-61
2021/12/14 06:27:20;;;;;;;;;20.50;19.50;;;;;-147.17;100.00;50160.94;4975910;28;51985;-61
2021/12/14 06:29:52;;;;;;;;;20.00;19.75;;;;;-147.17;100.00;50184.56;4973920;28;51075;-61
2021/12/14 06:32:21;;;;;;;;;19.00;16.75;;;;;-147.17;100.00;50194.41;4963355;28;51095;-62
2021/12/14 06:34:56;;;;;;;;;20.25;16.75;;;;;-147.17;100.00;50198.34;4960198;28;50931;-62
2021/12/14 06:37:30;;;;;;;;;15.75;14.25;;;;;-147.17;100.00;50178.66;4972754;28;50946;-61
2021/12/14 06:40:14;;;;;;;;;21.50;18.75;;;;;-147.17;100.00;50180.63;4961885;28;50989;-62
2021/12/14 06:42:52;;;;;;;;;22.25;20.50;;;;;-147.17;100.00;50190.47;4984477;28;50922;-62
2021/12/14 06:45:20;;;;;;;;;15.00;15.00;;;;;-147.17;100.00;50186.53;4966859;28;51899;-62
2021/12/14 06:47:49;;;;;;;;;18.00;16.00;;;;;-147.17;100.00;50202.28;4969913;28;51661;-61
2021/12/14 06:50:27;;;;;;;;;23.50;17.50;;;;;-147.17;100.00;50225.91;4974428;28;51217;-63
2021/12/14 06:52:59;;;;;;;;;17.75;17.00;;;;;-147.17;100.00;50220.00;4966344;28;51179;-62
2021/12/14 06:55:26;;;;;;;;;20.00;18.00;;;;;-147.17;100.00;50190.47;4969779;28;50984;-61
2021/12/14 06:57:52;;;;;;;;;20.75;19.75;;;;;-147.17;100.00;50204.25;4957195;28;51114;-62
2021/12/14 07:00:18;;;;;;;;;26.00;20.50;;;;;-147.17;100.00;50204.25;4983184;28;51165;-62
2021/12/14 07:02:48;;;;;;;;;17.50;16.75;;;;;-147.17;100.00;50214.09;4968597;28;51322;-63
2021/12/14 07:05:32;;;;;;;;;17.25;15.75;;;;;-147.17;100.00;50196.38;4961713;28;52853;-62
2021/12/14 07:08:06;;;;;;;;;18.00;16.50;;;;;-147.17;100.00;50218.03;4958223;28;51186;-63
2021/12/14 07:10:37;;;;;;;;;21.00;18.25;;;;;-147.17;100.00;50196.38;4972654;28;51062;-60
2021/12/14 07:13:11;;;;;;;;;22.25;18.50;;;;;-147.17;100.00;50170.78;4968924;28;51373;-60
2021/12/14 07:15:37;;;;;;;;;20.50;16.50;;;;;-147.17;100.00;50192.44;4976281;28;52350;-61
2021/12/14 07:18:05;;;;;;;;;19.50;18.75;;;;;-147.17;100.00;50237.72;4974853;28;51286;-61
2021/12/14 07:20:34;;;;;;;;;21.25;19.00;;;;;-147.17;100.00;50194.41;4972363;28;51074;-63
2021/12/14 07:23:20;;;;;;;;;20.50;18.25;;;;;-147.17;100.00;50214.09;4961036;28;51599;-63
2021/12/14 07:26:00;;;;;;;;;18.75;17.25;;;;;-147.17;100.00;50178.66;4968308;28;52557;-63
2021/12/14 07:28:33;;;;;;;;;19.00;17.00;;;;;-147.17;100.00;50214.09;4964597;28;51466;-61
2021/12/14 07:31:02;;;;;;;;;22.25;20.75;;;;;-147.17;100.00;50190.47;4971328;28;51289;-63
2021/12/14 07:33:34;;;;;;;;;14.00;13.50;;;;;-147.17;100.00;50178.66;4968869;28;52593;-62
2021/12/14 07:36:08;;;;;;;;;24.50;21.75;;;;;-147.17;100.00;50202.28;4972948;28;51913;-61
2021/12/14 07:38:33;;;;;;;;;24.25;20.00;;;;;-147.17;100.00;50168.81;4968701;28;51047;-62
2021/12/14 07:41:17;;;;;;;;;20.25;18.50;;;;;-147.17;100.00;50198.34;4962502;28;50924;-62
2021/12/14 07:43:50;;;;;;;;;21.00;19.00;;;;;-147.17;100.00;50180.63;4972474;28;50936;-62
2021/12/14 07:46:21;;;;;;;;;26.50;23.25;;;;;-147.17;100.00;50172.75;4966163;28;51959;-61
2021/12/14 07:48:54;;;;;;;;;18.75;18.25;;;;;-147.17;100.00;50143.22;4960805;28;51304;-62
2021/12/14 07:51:22;;;;;;;;;23.50;20.00;;;;;-147.17;100.00;50155.03;4969373;28;51022;-62
2021/12/14 07:53:53;;;;;;;;;24.50;17.50;;;;;-147.17;100.00;50202.28;4969818;28;51020;-63
2021/12/14 07:56:31;;;;;;;;;19.00;16.50;;;;;-147.17;100.00;50190.47;4966846;28;51805;-64
2021/12/14 07:58:58;;;;;;;;;20.75;20.00;;;;;-147.17;100.00;50192.44;4975810;28;51138;-63
2021/12/14 08:01:24;;;;;;;;;19.00;18.75;;;;;-147.17;100.00;50178.66;4973970;28;52046;-65
2021/12/14 08:04:07;;;;;;;;;20.00;18.75;;;;;-147.17;100.00;50198.34;4972281;28;51373;-63
2021/12/14 08:07:00;;;;;;;;;22.75;20.50;;;;;-147.17;100.00;50206.22;4974633;28;52030;-65
2021/12/14 08:09:34;;;;;;;;;18.50;16.25;;;;;-147.17;100.00;50178.66;4973718;28;51153;-64
2021/12/14 08:12:02;;;;;;;;;21.75;20.75;;;;;-147.17;100.00;50202.28;4984039;28;51154;-66
2021/12/14 08:14:30;;;;;;;;;20.75;20.50;;;;;-147.17;100.00;50212.13;4971483;28;51248;-63
2021/12/14 08:16:59;;;;;;;;;19.75;18.00;;;;;-147.17;100.00;50196.38;4970306;28;52557;-65
2021/12/14 08:19:33;;;;;;;;;20.00;17.50;;;;;-147.17;100.00;50214.09;4971171;28;51067;-64
2021/12/14 08:22:10;;;;;;;;;24.25;21.50;;;;;-147.17;100.00;50186.53;4967978;28;51402;-63
2021/12/14 08:24:37;;;;;;;;;25.25;21.00;;;;;-147.17;100.00;50180.63;4975731;28;51312;-61
2021/12/14 08:27:05;;;;;;;;;21.00;19.75;;;;;-147.17;100.00;50186.53;4977219;28;51823;-62
2021/12/14 08:29:32;;;;;;;;;20.00;18.50;;;;;-147.17;100.00;50212.13;4974356;28;50967;-62
2021/12/14 08:32:07;;;;;;;;;29.75;27.25;;;;;-147.17;100.00;50202.28;4970680;28;50924;-62
2021/12/14 08:34:36;;;;;;;;;32.75;30.25;;;;;-147.17;100.00;50206.22;4972613;28;51237;-64
2021/12/14 08:37:08;;;;;;;;;38.75;34.50;;;;;-147.17;100.00;50182.59;4965901;28;51229;-62
2021/12/14 08:39:42;;;;;;;;;32.00;29.00;;;;;-147.17;100.00;50178.66;4972778;28;51221;-63
2021/12/14 08:42:14;;;;;;;;;33.75;29.25;;;;;-147.17;100.00;50206.22;4970853;28;51272;-63
2021/12/14 08:44:51;;;;;;;;;39.75;34.25;;;;;-147.17;100.00;50218.03;4963636;28;51377;-63
2021/12/14 08:47:27;;;;;;;;;38.75;33.25;;;;;-147.17;100.00;50206.22;4975339;28;51102;-62
2021/12/14 08:49:54;;;;;;;;;30.25;29.50;;;;;-147.17;100.00;50182.59;4974319;28;51180;-65
2021/12/14 08:52:21;;;;;;;;;39.50;34.75;;;;;-147.17;100.00;50210.16;4965307;28;51143;-64
2021/12/14 08:54:47;;;;;;;;;21.25;20.50;;;;;-147.17;100.00;50194.41;4970944;28;51209;-64
2021/12/14 08:57:20;;;;;;;;;25.00;22.00;;;;;-147.17;100.00;50184.56;4973137;28;52163;-62
2021/12/14 08:59:48;;;;;;;;;22.75;21.25;;;;;-147.17;100.00;50221.97;4971760;28;51146;-61
2021/12/14 09:02:17;;;;;;;;;25.00;23.50;;;;;-147.17;100.00;50192.44;4971506;28;51226;-60
2021/12/14 09:04:52;;;;;;;;;27.50;26.50;;;;;-147.17;100.00;50182.59;4965638;28;51276;-62
2021/12/14 09:07:25;;;;;;;;;30.50;27.75;;;;;-147.17;100.00;50192.44;4965549;28;51880;-62
2021/12/14 09:09:52;;;;;;;;;24.00;21.75;;;;;-147.17;100.00;50188.50;4965453;28;51209;-61
2021/12/14 09:12:40;;;;;;;;;21.00;20.75;;;;;-147.17;100.00;50221.97;4972288;28;50961;-62
2021/12/14 09:15:16;;;;;;;;;23.75;23.50;;;;;-147.17;100.00;50166.84;4972550;28;51145;-63
2021/12/14 09:17:42;;;;;;;;;21.75;20.00;;;;;-147.17;100.00;50186.53;4967497;28;52042;-62
2021/12/14 09:20:08;;;;;;;;;29.25;26.00;;;;;-147.17;100.00;50202.28;4970565;28;51162;-61
2021/12/14 09:22:41;;;;;;;;;27.75;23.75;;;;;-147.17;100.00;50182.59;4966932;28;51059;-61
2021/12/14 09:25:11;;;;;;;;;24.75;20.75;;;;;-147.17;100.00;50194.41;4972517;28;51892;-62
2021/12/14 09:27:38;;;;;;;;;27.75;24.00;;;;;-147.17;100.00;50170.78;4972874;28;51409;-62
2021/12/14 09:30:06;;;;;;;;;26.75;23.75;;;;;-147.17;100.00;50212.13;4972265;28;51217;-61
2021/12/14 09:32:34;;;;;;;;;29.00;25.50;;;;;-147.17;100.00;50204.25;4966130;28;51139;-59
2021/12/14 09:35:01;;;;;;;;;29.75;25.25;;;;;-147.17;100.00;50214.09;4969554;28;51952;-63
2021/12/14 09:37:28;;;;;;;;;30.50;27.50;;;;;-147.17;100.00;50188.50;4968206;28;50924;-62
2021/12/14 09:39:59;;;;;;;;;28.00;23.75;;;;;-147.17;100.00;50196.38;4965865;28;50984;-62
2021/12/14 09:42:29;;;;;;;;;28.00;23.00;;;;;-147.17;100.00;50200.31;4975507;28;51188;-63
2021/12/14 09:44:58;;;;;;;;;28.00;25.25;;;;;-147.17;100.00;50214.09;4961304;28;51232;-63
2021/12/14 09:47:29;;;;;;;;;32.25;28.75;;;;;-147.17;100.00;50216.06;4971884;28;51027;-63
2021/12/14 09:49:56;;;;;;;;;50.25;39.00;;;;;-147.17;100.00;50196.38;4973934;28;51284;-64
2021/12/14 09:52:30;;;;;;;;;29.25;27.75;;;;;-147.17;100.00;50198.34;4972560;28;51084;-64
2021/12/14 09:54:57;;;;;;;;;30.00;27.25;;;;;-147.17;100.00;50202.28;4976606;28;51307;-63
2021/12/14 09:57:28;;;;;;;;;36.50;28.50;;;;;-147.17;100.00;50221.97;4971455;28;51975;-62
2021/12/14 09:59:57;;;;;;;;;30.50;27.25;;;;;-147.17;100.00;50210.16;4972517;28;50945;-60
2021/12/14 10:02:28;;;;;;;;;30.50;27.25;;;;;-147.17;100.00;50206.22;4971650;28;51132;-62
2021/12/14 10:04:58;;;;;;;;;37.25;32.50;;;;;-147.17;100.00;50218.03;4962057;28;51035;-63
2021/12/14 10:07:25;;;;;;;;;30.25;28.50;;;;;-147.17;100.00;50200.31;4973364;28;51837;-67
2021/12/14 10:09:54;;;;;;;;;33.50;29.50;;;;;-147.17;100.00;50227.88;4975083;28;51169;-69
2021/12/14 10:15:00;;;;;;;;;32.75;31.00;;;;;-147.17;100.00;50241.66;4966119;28;51371;-64
2021/12/14 10:20:02;;;;;;;;;32.25;28.75;;;;;-147.17;100.00;50214.09;5026403;22;51139;-59
2021/12/14 10:22:31;;;;;;;;;27.50;23.25;;;;;-147.17;100.00;50204.25;4964161;28;51234;-58
2021/12/14 10:25:05;;;;;;;;;32.50;30.75;;;;;-147.17;100.00;50237.72;4966151;28;51166;-57
2021/12/14 10:27:33;;;;;;;;;33.75;30.75;;;;;-147.17;100.00;50227.88;4961054;28;52063;-58
2021/12/14 10:30:01;;;;;;;;;29.50;27.50;;;;;-147.17;100.00;50229.84;4973485;28;51068;-58
2021/12/14 10:32:32;;;;;;;;;23.75;18.25;;;;;-147.17;100.00;50241.66;4971782;28;51019;-60
2021/12/14 10:35:07;;;;;;;;;36.00;29.00;;;;;-147.17;100.00;50214.09;4972953;28;51052;-58
2021/12/14 10:37:52;;;;;;;;;36.50;31.25;;;;;-147.17;100.00;50233.78;4964546;28;52533;-58
2021/12/14 10:43:13;;;;;;;;;32.75;27.00;;;;;-147.17;100.00;50198.34;4953952;28;50837;-57
2021/12/14 10:45:42;;;;;;;;;23.75;23.75;;;;;-147.17;100.00;50221.97;4969457;28;51307;-58
2021/12/14 10:48:08;;;;;;;;;27.25;26.00;;;;;-147.17;100.00;50229.84;4953418;28;50956;-58
2021/12/14 10:50:36;;;;;;;;;28.00;25.25;;;;;-147.17;100.00;50210.16;4953435;28;50959;-58
2021/12/14 10:53:05;;;;;;;;;26.25;23.50;;;;;-147.17;100.00;50225.91;4953845;28;51233;-58
2021/12/14 10:55:36;;;;;;;;;36.25;31.25;;;;;-147.17;100.00;50212.13;4958606;28;51243;-57
2021/12/14 10:58:05;;;;;;;;;37.75;33.25;;;;;-147.17;100.00;50229.84;4972934;28;51848;-57
2021/12/14 11:00:43;;;;;;;;;29.25;24.25;;;;;-147.17;100.00;50214.09;4954386;28;51063;-58
2021/12/14 11:03:17;;;;;;;;;28.25;26.50;;;;;-147.17;100.00;50247.56;4964255;28;51094;-57
2021/12/14 11:05:47;;;;;;;;;37.75;33.75;;;;;-147.17;100.00;50208.19;4963320;28;51375;-57
2021/12/14 11:08:36;;;;;;;;;33.75;31.00;;;;;-147.17;100.00;50210.16;4967815;28;53653;-58
2021/12/14 11:11:05;;;;;;;;;32.25;30.75;;;;;-147.17;100.00;50249.53;4961556;28;50978;-57
2021/12/14 11:13:43;;;;;;;;;31.00;29.25;;;;;-147.17;100.00;50221.97;4958454;28;51007;-57
2021/12/14 11:16:16;;;;;;;;;30.50;27.75;;;;;-147.17;100.00;50229.84;4971808;28;51473;-58
2021/12/14 11:18:45;;;;;;;;;32.50;32.25;;;;;-147.17;100.00;50210.16;4960907;28;52030;-59
2021/12/14 11:21:14;;;;;;;;;39.75;35.25;;;;;-147.17;100.00;50263.31;4952661;28;50980;-59
2021/12/14 11:23:46;;;;;;;;;31.50;29.75;;;;;-147.17;100.00;50237.72;4952747;28;51398;-58
2021/12/14 11:26:32;;;;;;;;;33.50;31.00;;;;;-147.17;100.00;50221.97;4972730;28;50937;-58
2021/12/14 11:29:04;;;;;;;;;32.75;29.50;;;;;-147.17;100.00;50221.97;4967976;28;51817;-57
2021/12/14 11:31:34;;;;;;;;;51.00;40.25;;;;;-147.17;100.00;50214.09;4952332;28;50920;-59
2021/12/14 11:34:11;;;;;;;;;33.25;30.75;;;;;-147.17;100.00;50186.53;4952301;28;51325;-59
2021/12/14 11:36:44;;;;;;;;;36.25;34.00;;;;;-147.17;100.00;50212.13;4971736;28;51367;-59
2021/12/14 11:39:24;;;;;;;;;33.00;30.50;;;;;-147.17;100.00;50235.75;4971506;28;51186;-59